Terminal Aerodrome Forecast
Issued by NWS Jacksonville, FL

Home | Current Version | Previous Version | Text Only | Print | Product List | Glossary On
Versions: 1 2 3 4 5 6 7 8 9 10 11 12 13
000
FTUS42 KJAX 042320
TAFGNV
TAF
KGNV 042320Z 0500/0524 08010KT P6SM SCT040
     FM050100 07003KT P6SM FEW035
     FM051200 07008KT P6SM SCT035 BKN250
     FM051400 07013G20KT P6SM SCT035 BKN050=

USA.gov is the U.S. government's official web portal to all federal, state and local government web resources and services.